Time;durP1;ratioP1;P1;durP2;ratioP2;P2;SDS_P1;SDS_P2;PMS_P1;PMS_P2;Temp;Humidity;BMP_temperature;BMP_pressure;BME280_temperature;BME280_humidity;BME280_pressure;Samples;Min_cycle;Max_cycle;Signal;HPM_P1;HPM_P2
2023/09/05 00:01:54;;;;;;;7.32;3.83;;;14.20;99.90;;;;;;6144106;23;20813;-67
2023/09/05 00:04:20;;;;;;;6.35;3.90;;;;;;;;;;6144250;22;20057;-67
2023/09/05 00:06:46;;;;;;;9.88;3.35;;;;;;;;;;6118281;23;20026;-67
2023/09/05 00:09:13;;;;;;;5.60;3.17;;;14.20;99.90;;;;;;6117549;23;20032;-68
2023/09/05 00:11:39;;;;;;;10.40;3.92;;;;;;;;;;6144117;23;20131;-67
2023/09/05 00:14:05;;;;;;;8.30;3.95;;;;;;;;;;6117223;23;20465;-68
2023/09/05 00:16:31;;;;;;;5.75;3.72;;;14.10;99.90;;;;;;6144240;23;20470;-67
2023/09/05 00:18:59;;;;;;;5.85;3.72;;;14.20;99.90;;;;;;6143997;22;20014;-67
2023/09/05 00:21:25;;;;;;;8.75;4.03;;;;;;;;;;6117118;23;20844;-67
2023/09/05 00:23:51;;;;;;;3.67;2.92;;;;;;;;;;6117366;23;20414;-67
2023/09/05 00:26:17;;;;;;;5.78;4.15;;;;;;;;;;6143867;23;20022;-67
2023/09/05 00:28:43;;;;;;;4.60;3.65;;;;;;;;;;6143469;23;20022;-69
2023/09/05 00:31:11;;;;;;;5.50;3.70;;;13.80;99.90;;;;;;6117421;23;20554;-67
2023/09/05 00:33:37;;;;;;;7.00;3.97;;;;;;;;;;6117097;23;20448;-68
2023/09/05 00:36:04;;;;;;;6.85;4.35;;;13.40;99.90;;;;;;6117464;23;20022;-70
2023/09/05 00:38:30;;;;;;;6.10;3.90;;;13.30;99.90;;;;;;6143290;22;20453;-67
2023/09/05 00:40:56;;;;;;;4.90;4.15;;;;;;;;;;6143865;22;20020;-67
2023/09/05 00:43:22;;;;;;;5.82;4.88;;;;;;;;;;6143628;23;20017;-67
2023/09/05 00:45:51;;;;;;;5.40;4.90;;;13.40;99.90;;;;;;6117566;23;20021;-67
2023/09/05 00:48:23;;;;;;;9.32;5.75;;;13.40;99.90;;;;;;6143338;23;20388;-67
2023/09/05 00:50:51;;;;;;;6.22;5.55;;;13.30;99.90;;;;;;6143392;23;20025;-67
2023/09/05 00:53:17;;;;;;;7.25;5.60;;;;;;;;;;6143294;23;20014;-67
2023/09/05 00:55:43;;;;;;;7.68;5.53;;;13.40;99.90;;;;;;6143671;23;20014;-67
2023/09/05 00:58:11;;;;;;;7.03;5.20;;;;;;;;;;6143479;22;20100;-67
2023/09/05 01:00:37;;;;;;;7.40;5.60;;;;;;;;;;6143904;23;20013;-67
2023/09/05 01:03:03;;;;;;;6.13;5.25;;;;;;;;;;6116841;23;20021;-67
2023/09/05 01:05:33;;;;;;;6.85;5.32;;;13.60;99.90;;;;;;6117588;23;20029;-67
2023/09/05 01:08:24;;;;;;;7.20;5.57;;;13.70;99.90;;;;;;6117487;23;20032;-67
2023/09/05 01:10:59;;;;;;;7.05;5.28;;;13.50;99.90;;;;;;6117500;23;20060;-67
2023/09/05 01:13:26;;;;;;;7.38;5.35;;;13.50;99.90;;;;;;6143022;22;20462;-69
2023/09/05 01:15:53;;;;;;;8.75;6.15;;;13.80;99.90;;;;;;6117539;23;20018;-69
2023/09/05 01:18:19;;;;;;;6.90;6.13;;;;;;;;;;6117874;23;20022;-71
2023/09/05 01:21:40;;;;;;;5.80;5.20;;;13.70;99.90;;;;;;6118564;23;20083;-69
2023/09/05 01:24:08;;;;;;;7.28;4.78;;;;;;;;;;6145977;23;20025;-71
2023/09/05 01:26:34;;;;;;;5.07;4.38;;;13.60;99.90;;;;;;6093952;23;20716;-69
2023/09/05 01:29:00;;;;;;;8.18;4.25;;;13.70;99.90;;;;;;6143612;22;20021;-69
2023/09/05 01:31:26;;;;;;;6.30;5.05;;;13.70;99.90;;;;;;6118541;23;20013;-69
2023/09/05 01:33:52;;;;;;;6.45;4.93;;;;;;;;;;6117820;23;20025;-69
2023/09/05 01:36:18;;;;;;;6.72;4.85;;;;;;;;;;6144134;23;20348;-69
2023/09/05 01:38:44;;;;;;;6.07;4.85;;;;;;;;;;6144179;23;20063;-69
2023/09/05 01:41:10;;;;;;;6.75;4.35;;;;;;;;;;6144404;23;20013;-69
2023/09/05 01:43:36;;;;;;;5.10;3.83;;;;;;;;;;6143561;23;20088;-69
2023/09/05 01:46:02;;;;;;;6.55;4.70;;;;;;;;;;6144150;23;20025;-69
2023/09/05 01:48:28;;;;;;;9.25;5.22;;;;;;;;;;6118119;23;20086;-69
2023/09/05 01:50:54;;;;;;;5.63;4.50;;;;;;;;;;6093436;23;20034;-70
2023/09/05 01:53:20;;;;;;;6.75;5.35;;;;;;;;;;6117427;23;20026;-69
2023/09/05 01:55:45;;;;;;;6.65;5.10;;;13.50;99.90;;;;;;6143697;23;20020;-69
2023/09/05 01:58:11;;;;;;;8.02;5.72;;;;;;;;;;6117677;23;20060;-69
2023/09/05 02:00:37;;;;;;;8.10;6.68;;;13.50;99.90;;;;;;6143735;23;20017;-69
2023/09/05 02:03:03;;;;;;;8.57;6.07;;;;;;;;;;6117883;23;20370;-69
2023/09/05 02:05:29;;;;;;;6.75;4.68;;;;;;;;;;6143802;23;20028;-69
2023/09/05 02:07:56;;;;;;;6.53;5.50;;;;;;;;;;6143745;23;20045;-69
2023/09/05 02:10:22;;;;;;;9.00;5.90;;;;;;;;;;6143552;23;20508;-70
2023/09/05 02:12:49;;;;;;;9.80;6.47;;;;;;;;;;6117336;23;20053;-69
2023/09/05 02:15:14;;;;;;;8.90;5.95;;;13.80;99.90;;;;;;6142897;23;20327;-69
2023/09/05 02:17:40;;;;;;;7.88;6.05;;;;;;;;;;6144221;22;20093;-70
2023/09/05 02:20:07;;;;;;;8.77;6.75;;;13.60;99.90;;;;;;6143731;23;20348;-69
2023/09/05 02:22:33;;;;;;;9.88;6.65;;;;;;;;;;6117227;23;20499;-69
2023/09/05 02:25:01;;;;;;;9.07;6.32;;;;;;;;;;6143599;23;20229;-70
2023/09/05 02:27:27;;;;;;;9.63;7.47;;;;;;;;;;6143916;23;20025;-71
2023/09/05 02:30:01;;;;;;;11.23;6.97;;;13.50;99.90;;;;;;6143356;23;20105;-70
2023/09/05 02:32:29;;;;;;;8.50;7.07;;;13.60;99.90;;;;;;6117480;23;20061;-69
2023/09/05 02:34:55;;;;;;;14.05;7.03;;;;;;;;;;6143109;23;20028;-70
2023/09/05 02:37:21;;;;;;;9.27;7.70;;;;;;;;;;6143387;23;20018;-69
2023/09/05 02:39:47;;;;;;;13.07;7.70;;;;;;;;;;6143793;23;20020;-69
2023/09/05 02:42:13;;;;;;;13.43;8.05;;;;;;;;;;6143732;23;20437;-69
2023/09/05 02:44:39;;;;;;;14.32;7.72;;;;;;;;;;6143696;23;20029;-69
2023/09/05 02:47:05;;;;;;;8.90;7.25;;;;;;;;;;6143497;23;20053;-71
2023/09/05 02:49:31;;;;;;;10.25;7.72;;;14.20;99.90;;;;;;6143406;23;20018;-69
2023/09/05 02:51:57;;;;;;;9.52;7.95;;;14.20;99.90;;;;;;6143294;23;20441;-69
2023/09/05 02:54:23;;;;;;;10.55;7.68;;;;;;;;;;6116836;23;20045;-69
2023/09/05 02:56:50;;;;;;;10.57;7.80;;;14.30;99.90;;;;;;6117325;23;20025;-69
2023/09/05 02:59:15;;;;;;;12.98;8.25;;;14.30;99.90;;;;;;6117030;23;20096;-69
2023/09/05 03:01:41;;;;;;;10.90;9.02;;;;;;;;;;6117469;23;20096;-69
2023/09/05 03:04:07;;;;;;;10.15;7.45;;;14.20;99.90;;;;;;6116747;23;20020;-69
2023/09/05 03:06:33;;;;;;;9.02;7.80;;;;;;;;;;6117291;23;20096;-71
2023/09/05 03:08:59;;;;;;;10.38;7.60;;;;;;;;;;6143336;23;20350;-69
2023/09/05 03:11:25;;;;;;;10.07;7.85;;;;;;;;;;6143335;23;20149;-69
2023/09/05 03:13:50;;;;;;;9.13;7.53;;;13.90;99.90;;;;;;6116521;23;20481;-69
2023/09/05 03:16:18;;;;;;;13.13;7.82;;;;;;;;;;6116994;23;20080;-70
2023/09/05 03:18:44;;;;;;;11.02;7.88;;;;;;;;;;6116733;23;20458;-69
2023/09/05 03:21:10;;;;;;;9.95;7.22;;;;;;;;;;6117276;23;20100;-69
2023/09/05 03:23:36;;;;;;;10.73;7.63;;;;;;;;;;6142508;23;20021;-69
2023/09/05 03:26:02;;;;;;;9.25;7.55;;;;;;;;;;6142531;23;20025;-69
2023/09/05 03:28:42;;;;;;;11.05;7.22;;;14.00;99.90;;;;;;6116784;23;20621;-69
2023/09/05 03:31:08;;;;;;;9.57;7.60;;;;;;;;;;6142953;22;20013;-69
2023/09/05 03:33:34;;;;;;;13.38;7.32;;;;;;;;;;6116346;23;20032;-69
2023/09/05 03:36:00;;;;;;;10.55;8.10;;;;;;;;;;6142984;23;20088;-69
2023/09/05 03:38:26;;;;;;;11.77;8.07;;;13.90;99.90;;;;;;6142567;23;20051;-69
2023/09/05 03:40:52;;;;;;;10.27;7.55;;;;;;;;;;6142671;22;20021;-69
2023/09/05 03:43:17;;;;;;;11.43;7.90;;;13.80;99.90;;;;;;6142829;23;20014;-69
2023/09/05 03:45:48;;;;;;;9.82;7.25;;;13.90;99.90;;;;;;6142789;22;20492;-70
2023/09/05 03:48:14;;;;;;;9.13;6.80;;;;;;;;;;6142650;23;20014;-69
2023/09/05 03:50:40;;;;;;;10.18;7.82;;;13.60;99.90;;;;;;6142619;23;20536;-70
2023/09/05 03:53:06;;;;;;;9.77;7.47;;;;;;;;;;6142509;22;20350;-69
2023/09/05 03:55:34;;;;;;;10.48;7.65;;;13.70;99.90;;;;;;6116043;23;20018;-69
2023/09/05 03:58:04;;;;;;;11.85;7.88;;;14.10;99.90;;;;;;6142443;23;20454;-69
2023/09/05 04:00:30;;;;;;;12.25;7.80;;;;;;;;;;6116457;23;20101;-69
2023/09/05 04:02:56;;;;;;;11.75;7.85;;;13.90;99.90;;;;;;6142559;23;20021;-69
2023/09/05 04:05:23;;;;;;;11.13;8.38;;;;;;;;;;6116241;23;20051;-69
2023/09/05 04:07:48;;;;;;;10.52;7.20;;;13.70;99.90;;;;;;6142470;23;20213;-69
2023/09/05 04:10:14;;;;;;;8.20;7.30;;;;;;;;;;6142712;22;20091;-69
2023/09/05 04:12:40;;;;;;;11.40;8.02;;;13.60;99.90;;;;;;6116233;23;20109;-69
2023/09/05 04:15:06;;;;;;;12.10;7.95;;;13.30;99.90;;;;;;6142240;22;20018;-70
2023/09/05 04:17:32;;;;;;;12.38;8.25;;;;;;;;;;6142202;23;20018;-69
2023/09/05 04:19:58;;;;;;;10.00;8.05;;;;;;;;;;6142530;23;20014;-69
2023/09/05 04:22:26;;;;;;;12.98;8.80;;;;;;;;;;6142417;23;20108;-69
2023/09/05 04:24:54;;;;;;;9.43;8.38;;;13.50;99.90;;;;;;6116316;23;20025;-69
2023/09/05 04:27:21;;;;;;;10.05;8.45;;;;;;;;;;6142372;22;20114;-70
2023/09/05 04:29:51;;;;;;;9.52;8.07;;;13.60;99.90;;;;;;6115677;23;20036;-69
2023/09/05 04:32:18;;;;;;;10.38;8.27;;;13.20;99.90;;;;;;6115899;23;20365;-70
2023/09/05 04:34:43;;;;;;;14.93;8.13;;;13.30;99.90;;;;;;6116212;23;20088;-69
2023/09/05 04:37:09;;;;;;;9.77;7.97;;;;;;;;;;6142754;22;20047;-70
2023/09/05 04:39:37;;;;;;;15.40;8.20;;;;;;;;;;6144267;23;20396;-69
2023/09/05 04:42:03;;;;;;;10.48;8.25;;;13.20;99.90;;;;;;6116978;23;20089;-70
2023/09/05 04:44:29;;;;;;;12.80;8.52;;;13.30;99.90;;;;;;6117584;23;20018;-69
2023/09/05 04:47:21;;;;;;;9.60;7.78;;;13.30;99.90;;;;;;6117256;23;20044;-72
2023/09/05 04:49:51;;;;;;;10.05;8.00;;;13.30;99.90;;;;;;6144031;23;20017;-70
2023/09/05 04:52:18;;;;;;;11.02;8.20;;;13.20;99.90;;;;;;6143731;23;20068;-71
2023/09/05 04:54:45;;;;;;;13.10;9.15;;;13.00;99.90;;;;;;6143499;23;20013;-69
2023/09/05 04:57:11;;;;;;;9.13;7.80;;;;;;;;;;6143671;23;20018;-69
2023/09/05 04:59:37;;;;;;;10.07;8.40;;;;;;;;;;6143695;23;20014;-70
2023/09/05 05:02:04;;;;;;;12.85;8.45;;;13.20;99.90;;;;;;6143620;23;20559;-69
2023/09/05 05:04:30;;;;;;;11.77;8.63;;;;;;;;;;6143606;23;20032;-69
2023/09/05 05:06:56;;;;;;;10.68;8.45;;;;;;;;;;6143765;23;20018;-69
2023/09/05 05:09:22;;;;;;;12.27;8.35;;;13.50;99.90;;;;;;6117186;23;20472;-69
2023/09/05 05:11:48;;;;;;;10.80;8.93;;;;;;;;;;6116917;23;20025;-69
2023/09/05 05:14:13;;;;;;;12.18;8.75;;;13.60;99.90;;;;;;6117047;23;20056;-69
2023/09/05 05:16:43;;;;;;;11.55;9.35;;;;;;;;;;6117594;23;20449;-69
2023/09/05 05:19:09;;;;;;;12.70;9.13;;;;;;;;;;6143395;23;20021;-69
2023/09/05 05:21:35;;;;;;;16.17;9.32;;;;;;;;;;6117526;23;20050;-69
2023/09/05 05:24:01;;;;;;;13.07;9.40;;;14.00;99.90;;;;;;6117240;23;20025;-69
2023/09/05 05:26:28;;;;;;;14.00;9.23;;;;;;;;;;6140115;22;20021;-71
2023/09/05 05:28:54;;;;;;;14.85;10.57;;;;;;;;;;6142791;23;20021;-72
2023/09/05 05:31:20;;;;;;;12.50;9.35;;;14.10;99.90;;;;;;6092518;23;20643;-71
2023/09/05 05:33:46;;;;;;;13.75;9.52;;;;;;;;;;6116986;23;20017;-71
2023/09/05 05:36:11;;;;;;;13.52;9.50;;;;;;;;;;6142699;23;20018;-72
2023/09/05 05:38:37;;;;;;;12.40;9.65;;;;;;;;;;6092547;23;20113;-71
2023/09/05 05:41:07;;;;;;;13.35;9.60;;;14.50;99.90;;;;;;6116754;23;20426;-70
2023/09/05 05:43:33;;;;;;;14.82;10.52;;;;;;;;;;6143296;23;20088;-72
2023/09/05 05:45:59;;;;;;;12.73;9.82;;;;;;;;;;6116911;23;20076;-72
2023/09/05 05:48:26;;;;;;;14.35;9.40;;;;;;;;;;6116540;23;20054;-72
2023/09/05 05:50:52;;;;;;;13.52;9.95;;;14.80;99.90;;;;;;6116840;23;20754;-69
2023/09/05 05:53:20;;;;;;;11.13;8.68;;;;;;;;;;6116293;23;20021;-69
2023/09/05 05:55:46;;;;;;;11.85;8.65;;;;;;;;;;6116706;23;20033;-70
2023/09/05 05:58:13;;;;;;;13.30;8.95;;;;;;;;;;6116725;23;20017;-70
2023/09/05 06:00:50;;;;;;;11.50;9.02;;;14.90;99.90;;;;;;6143056;23;20048;-70
2023/09/05 06:03:23;;;;;;;11.57;8.02;;;15.00;99.90;;;;;;6116643;23;20449;-69
2023/09/05 06:05:50;;;;;;;9.30;7.85;;;15.30;99.90;;;;;;6143238;23;20013;-69
2023/09/05 06:08:16;;;;;;;11.13;8.50;;;15.20;99.90;;;;;;6116642;23;20024;-70
2023/09/05 06:10:42;;;;;;;12.48;9.02;;;15.50;99.90;;;;;;6117238;23;20018;-69
2023/09/05 06:13:09;;;;;;;10.15;8.07;;;;;;;;;;6116456;23;20025;-69
2023/09/05 06:15:35;;;;;;;11.63;8.43;;;15.90;99.90;;;;;;6116612;23;20048;-69
2023/09/05 06:18:02;;;;;;;10.98;7.85;;;16.50;99.90;;;;;;6116909;23;20014;-71
2023/09/05 06:20:34;;;;;;;9.07;7.32;;;;;;;;;;6143186;22;20025;-72
2023/09/05 06:23:00;;;;;;;10.88;6.90;;;16.90;99.90;;;;;;6116753;23;20073;-70
2023/09/05 06:25:27;;;;;;;9.93;7.10;;;;;;;;;;6116580;23;20511;-72
2023/09/05 06:27:53;;;;;;;7.88;6.10;;;17.60;99.90;;;;;;6116868;23;20746;-70
2023/09/05 06:30:18;;;;;;;8.73;5.85;;;17.90;99.90;;;;;;6142558;23;20025;-70
2023/09/05 06:32:44;;;;;;;10.55;5.78;;;18.30;99.90;;;;;;6117346;23;20028;-70
2023/09/05 06:35:09;;;;;;;9.70;5.80;;;18.50;99.90;;;;;;6142614;22;20032;-70
2023/09/05 06:37:36;;;;;;;8.27;5.63;;;18.70;99.90;;;;;;6116354;23;20085;-70
2023/09/05 06:40:09;;;;;;;14.35;5.95;;;18.80;99.90;;;;;;6116863;23;20020;-71
2023/09/05 06:42:39;;;;;;;8.30;5.80;;;19.10;99.90;;;;;;6116868;23;20449;-70
2023/09/05 06:45:05;;;;;;;8.77;4.80;;;19.40;99.90;;;;;;6116203;23;20057;-71
2023/09/05 06:47:31;;;;;;;5.82;4.65;;;19.50;99.90;;;;;;6142726;22;20071;-71
2023/09/05 06:49:56;;;;;;;6.20;4.07;;;20.20;99.90;;;;;;6143282;22;20013;-71
2023/09/05 06:52:22;;;;;;;6.13;3.72;;;20.30;99.90;;;;;;6142662;22;20045;-71
2023/09/05 06:54:48;;;;;;;4.38;3.92;;;20.90;99.90;;;;;;6116997;23;20022;-71
2023/09/05 06:57:15;;;;;;;6.47;4.30;;;20.70;99.90;;;;;;6116225;23;20009;-73
2023/09/05 06:59:40;;;;;;;5.95;3.58;;;20.20;99.90;;;;;;6142931;23;20017;-71
2023/09/05 07:02:06;;;;;;;6.22;4.47;;;19.90;99.90;;;;;;6142897;22;20010;-71
2023/09/05 07:04:31;;;;;;;8.70;4.22;;;19.70;99.90;;;;;;6142820;22;20020;-71
2023/09/05 07:07:03;;;;;;;4.85;3.75;;;19.60;99.90;;;;;;6093469;23;20401;-71
2023/09/05 07:09:29;;;;;;;5.22;3.42;;;20.00;99.90;;;;;;6144137;23;20018;-70
2023/09/05 07:11:55;;;;;;;6.63;3.83;;;20.00;99.90;;;;;;6117693;23;20022;-70
2023/09/05 07:14:21;;;;;;;4.75;3.58;;;20.20;99.90;;;;;;6143565;23;20021;-71
2023/09/05 07:16:46;;;;;;;7.93;3.83;;;20.20;99.90;;;;;;6117133;23;20021;-71
2023/09/05 07:19:12;;;;;;;7.40;3.95;;;20.20;99.90;;;;;;6116691;23;20022;-70
2023/09/05 07:21:40;;;;;;;5.93;3.60;;;20.10;99.90;;;;;;6116951;23;20017;-70
2023/09/05 07:24:09;;;;;;;5.97;3.80;;;20.20;99.90;;;;;;6142603;23;20017;-69
2023/09/05 07:26:35;;;;;;;6.68;3.70;;;20.10;99.90;;;;;;6142272;23;20027;-69
2023/09/05 07:29:01;;;;;;;6.13;3.15;;;20.20;99.90;;;;;;6115833;23;20342;-71
2023/09/05 07:31:31;;;;;;;5.50;3.03;;;20.30;99.90;;;;;;6142860;23;20024;-70
2023/09/05 07:33:59;;;;;;;5.63;2.90;;;20.20;99.90;;;;;;6115229;23;20075;-70
2023/09/05 07:36:26;;;;;;;4.10;3.15;;;20.30;99.90;;;;;;6115814;23;20071;-70
2023/09/05 07:38:52;;;;;;;5.72;2.95;;;20.20;99.90;;;;;;6142585;23;20017;-70
2023/09/05 07:41:17;;;;;;;4.55;2.88;;;20.20;99.90;;;;;;6115920;23;20696;-71
2023/09/05 07:43:43;;;;;;;3.85;2.47;;;20.20;99.90;;;;;;6142505;22;20018;-72
2023/09/05 07:46:11;;;;;;;5.07;2.58;;;20.20;99.90;;;;;;6115865;23;20033;-71
2023/09/05 07:48:37;;;;;;;4.97;3.20;;;20.20;99.90;;;;;;6116493;23;20021;-71
2023/09/05 07:51:04;;;;;;;4.80;2.28;;;20.30;99.90;;;;;;6142971;23;20067;-71
2023/09/05 07:53:32;;;;;;;4.45;3.13;;;20.30;99.90;;;;;;6115979;23;20510;-72
2023/09/05 07:55:57;;;;;;;6.18;2.95;;;20.30;99.90;;;;;;6142435;23;20513;-71
2023/09/05 07:58:24;;;;;;;3.42;2.50;;;20.40;99.90;;;;;;6115919;23;20014;-72
2023/09/05 08:00:53;;;;;;;4.90;2.83;;;20.20;99.90;;;;;;6115712;23;20522;-72
2023/09/05 08:03:19;;;;;;;5.53;2.38;;;20.40;99.90;;;;;;6116169;23;20025;-71
2023/09/05 08:05:44;;;;;;;5.20;2.67;;;20.50;99.90;;;;;;6142771;22;20017;-70
2023/09/05 08:08:10;;;;;;;2.88;1.90;;;20.50;99.90;;;;;;6115871;23;20446;-70
2023/09/05 08:10:37;;;;;;;3.17;1.75;;;20.60;99.90;;;;;;6115983;23;20031;-69
2023/09/05 08:13:03;;;;;;;2.33;1.70;;;20.80;99.90;;;;;;6142609;23;20060;-69
2023/09/05 08:15:29;;;;;;;5.07;2.08;;;21.00;99.90;;;;;;6116692;23;20036;-72
2023/09/05 08:17:54;;;;;;;5.95;2.40;;;21.00;99.90;;;;;;6143666;22;20014;-71
2023/09/05 08:20:21;;;;;;;3.20;1.90;;;21.10;99.90;;;;;;6143626;22;20020;-71
2023/09/05 08:22:47;;;;;;;3.83;1.98;;;22.40;99.90;;;;;;6116719;23;20018;-73
2023/09/05 08:25:15;;;;;;;4.40;1.92;;;21.30;99.90;;;;;;6143287;23;20597;-72
2023/09/05 08:27:43;;;;;;;4.07;1.85;;;21.60;99.90;;;;;;6143112;23;20013;-73
2023/09/05 08:30:13;;;;;;;8.57;1.95;;;23.30;99.90;;;;;;6143339;22;20029;-72
2023/09/05 08:32:39;;;;;;;2.70;1.58;;;21.50;99.90;;;;;;6117361;23;20028;-73
2023/09/05 08:35:09;;;;;;;3.97;1.95;;;21.70;99.90;;;;;;6115717;23;20025;-73
2023/09/05 08:37:38;;;;;;;6.25;2.28;;;21.80;99.90;;;;;;6116096;23;20463;-73
2023/09/05 08:40:04;;;;;;;2.72;1.55;;;21.80;99.90;;;;;;6143604;22;20029;-72
2023/09/05 08:42:31;;;;;;;3.67;1.90;;;21.80;99.90;;;;;;6143105;23;20059;-72
2023/09/05 08:44:58;;;;;;;2.78;1.55;;;22.10;99.90;;;;;;6116670;23;20091;-73
2023/09/05 08:47:26;;;;;;;2.03;1.27;;;22.50;99.90;;;;;;6143617;23;20021;-73
2023/09/05 08:49:53;;;;;;;5.53;2.15;;;22.20;99.90;;;;;;6143160;22;20490;-72
2023/09/05 08:52:20;;;;;;;3.53;1.70;;;24.50;99.90;;;;;;6116975;23;20025;-72
2023/09/05 08:54:47;;;;;;;3.00;1.60;;;23.50;99.90;;;;;;6116632;23;20032;-73
2023/09/05 08:57:17;;;;;;;2.90;1.60;;;22.50;99.90;;;;;;6117387;23;20048;-73
2023/09/05 08:59:43;;;;;;;3.60;1.60;;;22.80;99.90;;;;;;6116658;23;20013;-73
2023/09/05 09:02:13;;;;;;;4.68;2.20;;;22.90;99.90;;;;;;6117089;23;20102;-73
2023/09/05 09:04:52;;;;;;;4.82;1.67;;;23.10;99.90;;;;;;6143676;23;20021;-75
2023/09/05 09:07:17;;;;;;;3.72;1.30;;;23.00;99.90;;;;;;6143345;23;20036;-72
2023/09/05 09:09:43;;;;;;;3.65;1.38;;;23.50;99.90;;;;;;6116773;23;20454;-72
2023/09/05 09:12:10;;;;;;;2.63;1.35;;;23.30;99.90;;;;;;6117119;23;20075;-73
2023/09/05 09:14:35;;;;;;;2.72;1.05;;;23.50;99.90;;;;;;6143031;22;20028;-73
2023/09/05 09:17:04;;;;;;;3.08;0.90;;;23.60;99.90;;;;;;6117436;23;20010;-72
2023/09/05 09:19:30;;;;;;;3.72;1.23;;;23.60;99.90;;;;;;6117066;23;20013;-73
2023/09/05 09:22:00;;;;;;;5.28;1.30;;;24.10;99.90;;;;;;6117021;23;20044;-73
2023/09/05 09:24:39;;;;;;;1.92;1.13;;;24.30;99.90;;;;;;6143019;23;20021;-73
2023/09/05 09:27:06;;;;;;;3.33;1.10;;;24.20;99.90;;;;;;6116974;23;20021;-73
2023/09/05 09:29:33;;;;;;;5.00;0.98;;;24.70;99.90;;;;;;6116724;23;20022;-74
2023/09/05 09:32:05;;;;;;;2.63;1.02;;;26.30;99.90;;;;;;6116848;23;20353;-73
2023/09/05 09:34:32;;;;;;;3.42;0.95;;;25.30;99.90;;;;;;6116363;23;20386;-73
2023/09/05 09:36:58;;;;;;;3.72;1.50;;;25.40;99.90;;;;;;6116981;23;20017;-73
2023/09/05 09:39:25;;;;;;;1.83;1.02;;;25.20;99.90;;;;;;6116777;23;20024;-73
2023/09/05 09:41:51;;;;;;;4.47;1.33;;;25.70;99.90;;;;;;6116979;23;20018;-72
2023/09/05 09:44:24;;;;;;;2.00;0.90;;;25.50;99.90;;;;;;6143107;22;20013;-74
2023/09/05 09:46:51;;;;;;;1.52;0.98;;;26.80;99.90;;;;;;6117095;23;20731;-73
2023/09/05 09:49:19;;;;;;;2.25;0.90;;;25.50;99.90;;;;;;6116878;23;20782;-73
2023/09/05 09:51:47;;;;;;;1.70;0.93;;;25.70;99.90;;;;;;6142851;22;20018;-73
2023/09/05 09:54:15;;;;;;;4.05;0.82;;;25.50;99.90;;;;;;6116476;23;20017;-72
2023/09/05 09:56:42;;;;;;;1.52;0.80;;;25.80;99.90;;;;;;6116749;23;20087;-72
2023/09/05 09:59:10;;;;;;;2.53;1.10;;;25.80;99.90;;;;;;6143471;22;20017;-72
2023/09/05 10:01:38;;;;;;;2.53;1.00;;;28.00;99.90;;;;;;6143382;23;20014;-73
2023/09/05 10:04:04;;;;;;;3.35;1.13;;;26.00;99.90;;;;;;6117125;23;20457;-72
2023/09/05 10:06:30;;;;;;;3.72;0.90;;;26.10;99.90;;;;;;6143152;22;20116;-72
2023/09/05 10:08:56;;;;;;;4.97;1.25;;;26.20;99.90;;;;;;6116988;23;20072;-74
2023/09/05 10:11:22;;;;;;;3.75;0.80;;;26.20;99.90;;;;;;6143307;23;20017;-72
2023/09/05 10:13:49;;;;;;;3.50;0.85;;;26.30;99.90;;;;;;6117214;23;20022;-72
2023/09/05 10:16:16;;;;;;;2.38;0.80;;;26.30;99.90;;;;;;6116681;23;20032;-72
2023/09/05 10:18:43;;;;;;;7.05;0.93;;;26.20;99.90;;;;;;6116765;23;20041;-72
2023/09/05 10:21:10;;;;;;;1.27;0.50;;;26.20;99.90;;;;;;6116569;23;20358;-73
2023/09/05 10:23:38;;;;;;;1.30;0.60;;;27.00;99.90;;;;;;6142736;23;20017;-72
2023/09/05 10:26:04;;;;;;;1.42;0.63;;;26.00;99.90;;;;;;6116704;23;20791;-73
2023/09/05 10:28:31;;;;;;;1.92;0.70;;;26.00;99.90;;;;;;6116064;23;20024;-73
2023/09/05 10:31:12;;;;;;;4.53;0.88;;;26.10;99.90;;;;;;6116718;23;20032;-73
2023/09/05 10:33:40;;;;;;;1.58;0.77;;;26.00;99.90;;;;;;6142508;23;20538;-73
2023/09/05 10:36:42;;;;;;;1.38;0.60;;;25.70;99.90;;;;;;6116681;23;20067;-72
2023/09/05 10:39:25;;;;;;;2.70;0.55;;;26.00;99.90;;;;;;6116287;23;20039;-73
2023/09/05 10:41:51;;;;;;;2.97;0.65;;;26.00;99.90;;;;;;6116512;23;20061;-73
2023/09/05 10:44:17;;;;;;;1.88;0.68;;;26.00;99.90;;;;;;6116516;23;20025;-73
2023/09/05 10:46:42;;;;;;;1.90;0.60;;;26.00;99.90;;;;;;6142474;22;20501;-72
2023/09/05 10:49:14;;;;;;;4.35;0.70;;;26.10;99.90;;;;;;6143234;22;20017;-72
2023/09/05 10:52:14;;;;;;;1.77;0.90;;;26.20;99.90;;;;;;6116453;23;20029;-73
2023/09/05 10:54:40;;;;;;;2.90;0.82;;;26.20;99.90;;;;;;6116308;23;20022;-74
2023/09/05 10:57:32;;;;;;;1.40;0.57;;;26.40;99.90;;;;;;6116380;23;20017;-72
2023/09/05 10:59:58;;;;;;;2.67;0.80;;;26.00;99.90;;;;;;6116687;23;20089;-74
2023/09/05 11:02:26;;;;;;;2.85;0.60;;;26.10;99.90;;;;;;6143093;22;20056;-72
2023/09/05 11:04:55;;;;;;;2.40;0.50;;;27.70;99.90;;;;;;6116675;23;20098;-73
2023/09/05 11:07:22;;;;;;;3.03;0.60;;;26.40;99.90;;;;;;6143434;22;20483;-73
2023/09/05 11:09:54;;;;;;;2.50;0.73;;;26.40;99.90;;;;;;6116866;23;20081;-73
2023/09/05 11:12:20;;;;;;;1.77;0.70;;;26.40;99.90;;;;;;6116891;23;20017;-72
2023/09/05 11:14:46;;;;;;;4.40;0.70;;;26.30;99.90;;;;;;6116644;23;20018;-73
2023/09/05 11:17:13;;;;;;;1.60;0.50;;;26.40;99.90;;;;;;6143006;22;20025;-72
2023/09/05 11:19:42;;;;;;;1.67;0.65;;;26.60;99.90;;;;;;6117228;23;20027;-72
2023/09/05 11:22:22;;;;;;;1.00;0.50;;;27.80;99.90;;;;;;6116443;23;20045;-73
2023/09/05 11:25:00;;;;;;;1.00;0.40;;;26.40;99.90;;;;;;6143230;23;20017;-73
2023/09/05 11:27:29;;;;;;;2.85;0.75;;;26.50;99.90;;;;;;6117310;23;20028;-74
2023/09/05 11:29:57;;;;;;;0.98;0.43;;;26.40;99.90;;;;;;6142786;23;20021;-74
2023/09/05 11:32:33;;;;;;;0.82;0.40;;;26.50;99.90;;;;;;6143069;23;20022;-73
2023/09/05 11:35:01;;;;;;;1.38;0.40;;;26.20;99.90;;;;;;6143115;23;20060;-73
2023/09/05 11:37:28;;;;;;;1.20;0.40;;;27.90;99.90;;;;;;6117010;23;20089;-73
2023/09/05 11:39:54;;;;;;;1.02;0.50;;;26.30;99.90;;;;;;6117455;23;20017;-73
2023/09/05 11:42:30;;;;;;;6.80;0.60;;;26.50;99.90;;;;;;6116593;23;20051;-75
2023/09/05 11:44:57;;;;;;;2.95;0.50;;;26.10;99.90;;;;;;6116528;23;20022;-73
2023/09/05 11:47:27;;;;;;;2.53;0.63;;;26.50;99.90;;;;;;6117538;23;20025;-74
2023/09/05 11:49:53;;;;;;;2.15;0.68;;;26.30;99.90;;;;;;6117098;23;20044;-73
2023/09/05 11:52:22;;;;;;;2.17;0.32;;;28.20;99.90;;;;;;6117647;23;20029;-72
2023/09/05 11:54:48;;;;;;;1.52;0.60;;;26.50;99.90;;;;;;6143488;23;20024;-73
2023/09/05 11:57:19;;;;;;;2.58;0.60;;;26.60;99.90;;;;;;6117681;23;20018;-73
2023/09/05 11:59:47;;;;;;;1.70;0.60;;;27.00;99.90;;;;;;6143695;22;20367;-74
2023/09/05 12:02:15;;;;;;;2.00;0.70;;;26.80;99.90;;;;;;6117186;23;20013;-73
2023/09/05 12:04:42;;;;;;;4.25;0.88;;;26.90;99.90;;;;;;6092732;23;20020;-73
2023/09/05 12:07:07;;;;;;;2.00;0.65;;;26.90;99.90;;;;;;6117962;23;20028;-73
2023/09/05 12:09:34;;;;;;;1.35;0.63;;;26.70;99.90;;;;;;6117438;23;20014;-72
2023/09/05 12:12:14;;;;;;;3.53;0.70;;;27.00;99.90;;;;;;6117174;23;20032;-73
2023/09/05 12:14:49;;;;;;;2.13;0.80;;;27.10;99.90;;;;;;6117744;23;20049;-73
2023/09/05 12:17:20;;;;;;;1.58;0.45;;;27.20;99.90;;;;;;6117766;23;20032;-74
2023/09/05 12:19:47;;;;;;;3.92;0.63;;;27.30;99.90;;;;;;6093232;23;20018;-74
2023/09/05 12:22:31;;;;;;;2.78;0.70;;;27.00;99.90;;;;;;6117492;23;20063;-75
2023/09/05 12:25:14;;;;;;;2.10;0.93;;;27.20;99.90;;;;;;6143676;23;20021;-73
2023/09/05 12:27:42;;;;;;;1.77;0.75;;;27.00;99.90;;;;;;6117227;23;20070;-73
2023/09/05 12:30:22;;;;;;;2.10;0.65;;;27.30;99.90;;;;;;6117520;23;20105;-74
2023/09/05 12:32:48;;;;;;;1.98;0.70;;;27.20;99.90;;;;;;6116233;22;20049;-74
2023/09/05 12:35:13;;;;;;;1.30;0.45;;;27.00;99.90;;;;;;6116374;23;20060;-74
2023/09/05 12:37:39;;;;;;;1.98;0.75;;;27.20;99.90;;;;;;6116300;23;20021;-74
2023/09/05 12:40:06;;;;;;;3.10;0.60;;;27.10;99.90;;;;;;6117156;23;20021;-73
2023/09/05 12:42:32;;;;;;;1.70;0.70;;;27.40;99.90;;;;;;6143010;23;20353;-73
2023/09/05 12:44:57;;;;;;;2.90;1.05;;;27.40;99.90;;;;;;6143788;22;20018;-74
2023/09/05 12:47:23;;;;;;;2.33;0.40;;;27.20;99.90;;;;;;6143451;22;20025;-70
2023/09/05 12:49:50;;;;;;;3.72;1.10;;;27.30;99.90;;;;;;6144105;22;20408;-71
2023/09/05 12:52:16;;;;;;;1.55;0.88;;;27.10;99.90;;;;;;6117476;23;20017;-72
2023/09/05 12:54:44;;;;;;;2.33;0.70;;;27.10;99.90;;;;;;6143665;23;20075;-73
2023/09/05 12:57:09;;;;;;;2.60;0.75;;;27.10;99.90;;;;;;6143893;23;20022;-71
2023/09/05 12:59:35;;;;;;;1.35;0.50;;;26.90;99.90;;;;;;6117118;23;20067;-71
2023/09/05 13:02:01;;;;;;;2.78;0.60;;;27.20;99.90;;;;;;6143684;22;20025;-72
2023/09/05 13:04:26;;;;;;;1.95;1.02;;;27.40;99.90;;;;;;6117174;23;20032;-72
2023/09/05 13:06:53;;;;;;;2.78;1.02;;;27.00;99.90;;;;;;6117692;23;20025;-71
2023/09/05 13:09:19;;;;;;;4.10;0.88;;;27.00;99.90;;;;;;6143720;23;20509;-72
2023/09/05 13:11:47;;;;;;;2.35;0.60;;;27.00;99.90;;;;;;6143940;22;20017;-71
2023/09/05 13:14:12;;;;;;;1.92;0.68;;;27.20;99.90;;;;;;6143467;23;20575;-71
2023/09/05 13:16:38;;;;;;;1.35;0.68;;;27.20;99.90;;;;;;6117528;23;20087;-71